Time;durP1;ratioP1;P1;durP2;ratioP2;P2;SDS_P1;SDS_P2;PMS_P1;PMS_P2;Temp;Humidity;BMP_temperature;BMP_pressure;BME280_temperature;BME280_humidity;BME280_pressure;Samples;Min_cycle;Max_cycle;Signal;HPM_P1;HPM_P2
2021/01/17 00:00:18;;;;;;;38.97;18.70;;;-1.80;99.90;;;;;;5074490;28;20479;-66
2021/01/17 00:02:45;;;;;;;39.33;19.42;;;-1.80;99.90;;;;;;5073809;28;20020;-68
2021/01/17 00:05:17;;;;;;;41.85;21.33;;;-1.80;99.90;;;;;;5074308;28;20481;-64
2021/01/17 00:07:43;;;;;;;41.75;20.20;;;-1.70;99.90;;;;;;5074554;28;20024;-66
2021/01/17 00:10:11;;;;;;;39.30;20.08;;;-1.70;99.90;;;;;;5074193;28;20501;-66
2021/01/17 00:12:38;;;;;;;39.78;20.08;;;-1.70;99.90;;;;;;5073670;28;20471;-64
2021/01/17 00:15:11;;;;;;;40.78;19.90;;;-1.70;99.90;;;;;;5074137;28;20036;-65
2021/01/17 00:17:38;;;;;;;42.45;20.83;;;-1.70;99.90;;;;;;5074679;28;20043;-66
2021/01/17 00:20:09;;;;;;;48.78;23.08;;;-1.70;99.90;;;;;;5056934;28;20035;-66
2021/01/17 00:22:36;;;;;;;45.85;22.38;;;-1.70;99.90;;;;;;5074598;28;20048;-68
2021/01/17 00:25:09;;;;;;;46.13;21.65;;;-1.60;99.90;;;;;;5073299;28;20200;-67
2021/01/17 00:27:34;;;;;;;37.42;20.15;;;-1.70;99.90;;;;;;5074178;28;20029;-66
2021/01/17 00:30:02;;;;;;;39.33;19.33;;;-1.70;99.90;;;;;;5074224;28;20399;-66
2021/01/17 00:32:28;;;;;;;39.95;19.63;;;-1.70;99.90;;;;;;5074313;28;20459;-66
2021/01/17 00:34:53;;;;;;;38.55;20.05;;;-1.70;99.90;;;;;;5073143;28;20125;-67
2021/01/17 00:37:19;;;;;;;40.88;20.73;;;-1.70;99.90;;;;;;5072313;28;20031;-66
2021/01/17 00:39:45;;;;;;;40.50;21.65;;;-1.70;99.90;;;;;;5073541;28;20501;-66
2021/01/17 00:42:15;;;;;;;42.53;21.38;;;-1.60;99.90;;;;;;5077062;28;20047;-67
2021/01/17 00:44:42;;;;;;;47.17;23.23;;;-1.60;99.90;;;;;;5077095;28;20048;-66
2021/01/17 00:47:11;;;;;;;49.55;23.90;;;-1.60;99.90;;;;;;5073866;28;20028;-67
2021/01/17 00:49:36;;;;;;;46.40;24.02;;;-1.70;99.90;;;;;;5073584;28;20020;-67
2021/01/17 00:52:02;;;;;;;47.17;23.17;;;-1.70;99.90;;;;;;5074419;28;20028;-67
2021/01/17 00:54:28;;;;;;;45.25;24.13;;;-1.70;99.90;;;;;;5079700;28;20587;-66
2021/01/17 00:56:54;;;;;;;43.35;22.65;;;-1.70;99.90;;;;;;5079487;28;20021;-65
2021/01/17 00:59:20;;;;;;;47.17;23.13;;;-1.60;99.90;;;;;;5074471;28;20475;-66
2021/01/17 01:01:46;;;;;;;44.97;23.35;;;-1.70;99.90;;;;;;5074011;28;20099;-68
2021/01/17 01:04:16;;;;;;;45.85;23.85;;;-1.70;99.90;;;;;;5072851;28;20032;-67
2021/01/17 01:06:43;;;;;;;47.40;23.65;;;-1.80;99.90;;;;;;5073411;28;20115;-67
2021/01/17 01:09:11;;;;;;;45.70;22.90;;;-1.60;99.90;;;;;;5073445;28;20028;-68
2021/01/17 01:11:38;;;;;;;44.30;23.42;;;-1.60;99.90;;;;;;5073142;28;20024;-67
2021/01/17 01:14:04;;;;;;;44.85;23.52;;;-1.60;99.90;;;;;;5072661;28;20114;-67
2021/01/17 01:16:30;;;;;;;45.97;22.52;;;-1.60;99.90;;;;;;5073404;28;20155;-67
2021/01/17 01:18:56;;;;;;;47.00;22.92;;;-1.60;99.90;;;;;;5073247;28;20099;-67
2021/01/17 01:21:29;;;;;;;44.42;22.33;;;-1.60;99.90;;;;;;5072935;28;20024;-67
2021/01/17 01:23:55;;;;;;;43.45;21.83;;;-1.60;99.90;;;;;;5072538;28;20021;-67
2021/01/17 01:26:22;;;;;;;48.45;22.00;;;-1.50;99.90;;;;;;5072849;28;20025;-67
2021/01/17 01:28:49;;;;;;;43.53;20.88;;;-1.60;99.90;;;;;;5070857;28;20552;-67
2021/01/17 01:31:23;;;;;;;38.65;19.55;;;-1.60;99.90;;;;;;5072713;28;20023;-66
2021/01/17 01:33:49;;;;;;;39.22;19.52;;;-1.60;99.90;;;;;;5054448;28;20028;-67
2021/01/17 01:36:25;;;;;;;38.92;19.67;;;-1.60;99.90;;;;;;5081144;28;20107;-65
2021/01/17 01:38:51;;;;;;;38.15;18.30;;;-1.50;99.90;;;;;;5077193;28;20021;-67
2021/01/17 01:41:21;;;;;;;40.17;20.13;;;-1.60;99.90;;;;;;5072859;28;20063;-66
2021/01/17 01:43:47;;;;;;;41.45;19.05;;;-1.60;99.90;;;;;;5071780;28;20032;-67
2021/01/17 01:46:19;;;;;;;38.97;19.30;;;-1.60;99.90;;;;;;5072607;28;20036;-67
2021/01/17 01:48:45;;;;;;;37.22;18.98;;;-1.60;99.90;;;;;;5072262;28;20047;-67
2021/01/17 01:51:14;;;;;;;38.53;19.35;;;-1.60;99.90;;;;;;5072497;28;20032;-67
2021/01/17 01:53:40;;;;;;;39.45;18.95;;;-1.60;99.90;;;;;;5071642;28;20035;-67
2021/01/17 01:56:07;;;;;;;38.05;19.90;;;-1.60;99.90;;;;;;5072040;28;20040;-67
2021/01/17 01:58:35;;;;;;;42.38;19.88;;;-1.60;99.90;;;;;;5072323;28;20028;-66
2021/01/17 02:01:01;;;;;;;39.55;18.98;;;-1.60;99.90;;;;;;5054338;28;20071;-67
2021/01/17 02:03:27;;;;;;;40.67;18.63;;;-1.60;99.90;;;;;;5071524;28;20068;-67
2021/01/17 02:05:52;;;;;;;41.70;19.08;;;-1.60;99.90;;;;;;5071990;28;20088;-65
2021/01/17 02:08:21;;;;;;;37.22;18.85;;;-1.60;99.90;;;;;;5072158;28;20070;-67
2021/01/17 02:10:47;;;;;;;44.97;22.05;;;-1.60;99.90;;;;;;5071952;28;20035;-66
2021/01/17 02:13:39;;;;;;;41.92;20.80;;;-1.60;99.90;;;;;;5071368;28;20017;-64
2021/01/17 02:16:07;;;;;;;43.85;21.50;;;-1.60;99.90;;;;;;5068786;28;20037;-68
2021/01/17 02:18:40;;;;;;;41.03;20.95;;;-1.50;99.90;;;;;;5071931;28;20024;-67
2021/01/17 02:21:08;;;;;;;46.45;22.08;;;-1.50;99.90;;;;;;5072005;28;20028;-67
2021/01/17 02:23:44;;;;;;;45.85;22.98;;;-1.60;99.90;;;;;;5071200;28;20046;-67
2021/01/17 02:26:09;;;;;;;40.95;19.95;;;-1.50;99.90;;;;;;5071395;28;20111;-66
2021/01/17 02:28:37;;;;;;;43.08;21.52;;;-1.50;99.90;;;;;;5071788;28;20103;-66
2021/01/17 02:31:04;;;;;;;42.05;21.02;;;-1.40;99.90;;;;;;5071911;28;20648;-67
2021/01/17 02:33:34;;;;;;;48.40;23.45;;;-1.50;99.90;;;;;;5071051;28;20108;-66
2021/01/17 02:36:17;;;;;;;46.80;24.38;;;-1.50;99.90;;;;;;5071679;28;20021;-67
2021/01/17 02:39:07;;;;;;;49.85;24.13;;;-1.50;99.90;;;;;;5055941;28;20040;-66
2021/01/17 02:41:54;;;;;;;47.60;23.80;;;-1.50;99.90;;;;;;5074913;28;20025;-67
2021/01/17 02:44:20;;;;;;;47.08;23.77;;;-1.50;99.90;;;;;;5070912;28;20104;-67
2021/01/17 02:46:46;;;;;;;46.40;24.50;;;-1.50;99.90;;;;;;5071413;28;20046;-67
2021/01/17 02:49:12;;;;;;;50.38;25.23;;;-1.50;99.90;;;;;;5071730;28;20375;-66
2021/01/17 02:51:38;;;;;;;49.40;23.63;;;-1.40;99.90;;;;;;5053435;28;20502;-66
2021/01/17 02:54:41;;;;;;;51.17;24.90;;;-1.40;99.90;;;;;;5070565;28;20035;-66
2021/01/17 02:57:11;;;;;;;49.83;24.00;;;-1.40;99.90;;;;;;5071408;28;20046;-67
2021/01/17 02:59:54;;;;;;;46.72;23.60;;;-1.50;99.90;;;;;;5071019;28;20131;-67
2021/01/17 03:02:29;;;;;;;41.10;22.40;;;-1.50;99.90;;;;;;5070825;28;20029;-67
2021/01/17 03:04:59;;;;;;;49.13;24.23;;;-1.50;99.90;;;;;;5070311;28;20028;-67
2021/01/17 03:07:28;;;;;;;52.60;24.38;;;-1.50;99.90;;;;;;5071405;28;20024;-66
2021/01/17 03:09:54;;;;;;;43.53;21.90;;;-1.50;99.90;;;;;;5070880;28;20020;-67
2021/01/17 03:12:19;;;;;;;39.20;20.35;;;-1.50;99.90;;;;;;5071387;28;20483;-67
2021/01/17 03:14:48;;;;;;;44.92;22.05;;;-1.50;99.90;;;;;;5070514;28;20054;-68
2021/01/17 03:17:14;;;;;;;47.95;22.30;;;-1.40;99.90;;;;;;5071102;28;20082;-67
2021/01/17 03:19:39;;;;;;;43.20;22.40;;;-1.40;99.90;;;;;;5052319;28;20487;-67
2021/01/17 03:22:05;;;;;;;40.15;21.38;;;-1.40;99.90;;;;;;5071147;28;20025;-66
2021/01/17 03:24:31;;;;;;;41.30;19.58;;;-1.50;99.90;;;;;;5070384;28;20024;-67
2021/01/17 03:26:57;;;;;;;42.50;21.60;;;-1.40;99.90;;;;;;5070980;28;20069;-66
2021/01/17 03:29:22;;;;;;;41.28;20.38;;;-1.40;99.90;;;;;;5071229;28;20020;-67
2021/01/17 03:31:48;;;;;;;42.03;21.42;;;-1.40;99.90;;;;;;5071102;28;20028;-68
2021/01/17 03:34:13;;;;;;;42.95;22.25;;;-1.40;99.90;;;;;;5052435;28;20021;-67
2021/01/17 03:36:39;;;;;;;47.60;22.75;;;-1.30;99.90;;;;;;5073549;28;20514;-67
2021/01/17 03:39:06;;;;;;;41.08;21.33;;;-1.40;99.90;;;;;;5071107;28;20040;-67
2021/01/17 03:41:32;;;;;;;40.03;20.52;;;-1.30;99.90;;;;;;5070894;28;20036;-65
2021/01/17 03:43:57;;;;;;;41.35;21.35;;;-1.40;99.90;;;;;;5070174;28;20033;-65
2021/01/17 03:46:24;;;;;;;37.65;20.05;;;-1.50;99.90;;;;;;5070814;28;20020;-67
2021/01/17 03:48:50;;;;;;;41.80;21.52;;;-1.50;99.90;;;;;;5070913;28;20494;-66
2021/01/17 03:51:16;;;;;;;44.08;21.73;;;-1.50;99.90;;;;;;5070790;28;20020;-66
2021/01/17 03:53:41;;;;;;;42.25;21.83;;;-1.50;99.90;;;;;;5070138;28;20127;-66
2021/01/17 03:56:07;;;;;;;41.35;21.33;;;-1.50;99.90;;;;;;5070607;28;20036;-67
2021/01/17 03:58:33;;;;;;;45.33;23.23;;;-1.40;99.90;;;;;;5070949;28;20036;-66
2021/01/17 04:00:58;;;;;;;39.40;20.83;;;-1.40;99.90;;;;;;5070863;28;20032;-66
2021/01/17 04:03:24;;;;;;;44.05;22.35;;;-1.40;99.90;;;;;;5070296;28;20032;-67
2021/01/17 04:05:50;;;;;;;41.80;22.88;;;-1.40;99.90;;;;;;5070797;28;20024;-66
2021/01/17 04:08:15;;;;;;;46.05;23.30;;;-1.50;99.90;;;;;;5070876;28;20032;-67
2021/01/17 04:10:41;;;;;;;46.95;24.35;;;-1.50;99.90;;;;;;5070733;28;20017;-66
2021/01/17 04:13:07;;;;;;;47.83;23.52;;;-1.40;99.90;;;;;;5073871;28;20058;-67
2021/01/17 04:15:32;;;;;;;42.33;21.85;;;-1.40;99.90;;;;;;5079643;28;20033;-67
2021/01/17 04:17:58;;;;;;;45.00;23.50;;;-1.30;99.90;;;;;;5091460;28;20056;-66
2021/01/17 04:20:24;;;;;;;45.30;22.20;;;-1.30;99.90;;;;;;5076227;28;20024;-67
2021/01/17 04:22:49;;;;;;;48.42;24.20;;;-1.30;99.90;;;;;;5074065;28;20035;-67
2021/01/17 04:25:15;;;;;;;46.60;22.95;;;-1.40;99.90;;;;;;5074406;28;20028;-66
2021/01/17 04:27:41;;;;;;;48.15;23.58;;;-1.30;99.90;;;;;;5074395;28;20409;-66
2021/01/17 04:30:07;;;;;;;49.65;24.08;;;-1.30;99.90;;;;;;5074285;28;20021;-66
2021/01/17 04:32:34;;;;;;;44.33;23.30;;;-1.40;99.90;;;;;;5074116;28;20055;-66
2021/01/17 04:35:01;;;;;;;41.88;21.70;;;-1.30;99.90;;;;;;5073264;28;20388;-66
2021/01/17 04:37:27;;;;;;;43.58;23.92;;;-1.40;99.90;;;;;;5074128;28;20374;-67
2021/01/17 04:39:52;;;;;;;42.63;22.25;;;-1.40;99.90;;;;;;5074173;28;20103;-66
2021/01/17 04:42:20;;;;;;;44.08;22.73;;;-1.30;99.90;;;;;;5073750;28;20021;-66
2021/01/17 04:45:02;;;;;;;47.50;23.88;;;-1.40;99.90;;;;;;5073050;28;20028;-66
2021/01/17 04:47:29;;;;;;;42.00;22.80;;;-1.30;99.90;;;;;;5074019;28;20077;-66
2021/01/17 04:50:01;;;;;;;47.08;23.13;;;-1.30;99.90;;;;;;5073503;28;20475;-66
2021/01/17 04:52:29;;;;;;;46.20;23.77;;;-1.30;99.90;;;;;;5074062;28;20040;-66
2021/01/17 04:54:57;;;;;;;44.42;22.73;;;-1.30;99.90;;;;;;5072775;28;20044;-66
2021/01/17 04:57:51;;;;;;;49.92;23.17;;;-1.30;99.90;;;;;;5073464;28;20020;-67
2021/01/17 05:00:27;;;;;;;47.20;23.60;;;-1.30;99.90;;;;;;5078180;28;20027;-66
2021/01/17 05:03:14;;;;;;;44.92;22.63;;;-1.20;99.90;;;;;;5074498;28;20028;-66
2021/01/17 05:05:51;;;;;;;45.20;22.40;;;-1.20;99.90;;;;;;5055400;28;20020;-67
2021/01/17 05:08:26;;;;;;;43.65;22.27;;;-1.20;99.90;;;;;;5073747;28;20017;-66
2021/01/17 05:11:06;;;;;;;43.55;22.05;;;-1.20;99.90;;;;;;5073100;28;20048;-66
2021/01/17 05:13:46;;;;;;;42.58;20.50;;;-1.20;99.90;;;;;;5072424;28;20020;-66
2021/01/17 05:16:14;;;;;;;41.85;20.67;;;-1.20;99.90;;;;;;5055126;28;20130;-67
2021/01/17 05:18:47;;;;;;;44.17;22.35;;;-1.20;99.90;;;;;;5073125;28;20394;-66
2021/01/17 05:21:19;;;;;;;43.58;22.02;;;-1.20;99.90;;;;;;5072271;28;20021;-66
2021/01/17 05:23:47;;;;;;;46.25;23.83;;;-1.20;99.90;;;;;;5071794;28;20024;-66
2021/01/17 05:26:13;;;;;;;46.92;23.83;;;-1.10;99.90;;;;;;5072826;28;20483;-67
2021/01/17 05:28:39;;;;;;;42.65;22.70;;;-1.10;99.90;;;;;;5073325;28;20027;-66
2021/01/17 05:31:04;;;;;;;43.90;22.48;;;-1.20;99.90;;;;;;5072953;28;20029;-68
2021/01/17 05:33:31;;;;;;;44.72;24.25;;;-1.20;99.90;;;;;;5072741;28;20029;-66
2021/01/17 05:35:59;;;;;;;40.75;21.63;;;-1.20;99.90;;;;;;5072777;28;20071;-67
2021/01/17 05:38:26;;;;;;;42.38;21.77;;;-1.20;99.90;;;;;;5073494;28;20425;-67
2021/01/17 05:40:52;;;;;;;46.17;22.75;;;-1.10;99.90;;;;;;5072749;28;20105;-66
2021/01/17 05:43:18;;;;;;;45.25;23.27;;;-1.10;99.90;;;;;;5072010;28;20158;-66
2021/01/17 05:45:44;;;;;;;44.03;21.67;;;-1.20;99.90;;;;;;5072507;28;20096;-68
2021/01/17 05:48:10;;;;;;;47.83;24.48;;;-1.20;99.90;;;;;;5072656;28;20027;-66
2021/01/17 05:50:41;;;;;;;43.60;22.75;;;-1.20;99.90;;;;;;5072987;28;20094;-66
2021/01/17 05:53:07;;;;;;;45.92;23.50;;;-1.20;99.90;;;;;;5072176;28;20032;-66
2021/01/17 05:55:40;;;;;;;47.35;25.13;;;-1.20;99.90;;;;;;5072078;28;20032;-66
2021/01/17 05:58:26;;;;;;;46.30;23.90;;;-1.10;99.90;;;;;;5072708;28;20028;-66
2021/01/17 06:01:16;;;;;;;47.38;24.15;;;-1.10;99.90;;;;;;5072731;28;20050;-66
2021/01/17 06:03:50;;;;;;;49.22;23.50;;;-1.10;99.90;;;;;;5064081;28;20102;-68
2021/01/17 06:06:26;;;;;;;44.70;23.25;;;-1.10;99.90;;;;;;5054526;28;20111;-65
2021/01/17 06:08:56;;;;;;;44.97;22.27;;;-1.10;99.90;;;;;;5072617;28;20016;-68
2021/01/17 06:11:22;;;;;;;46.58;24.50;;;-1.10;99.90;;;;;;5072001;28;20024;-68
2021/01/17 06:13:56;;;;;;;50.28;25.25;;;-1.10;99.90;;;;;;5053960;28;20032;-65
2021/01/17 06:16:32;;;;;;;49.58;24.50;;;-1.10;99.90;;;;;;5072318;28;20027;-65
2021/01/17 06:19:02;;;;;;;46.92;24.30;;;-1.10;99.90;;;;;;5073881;28;20082;-66
2021/01/17 06:21:30;;;;;;;49.40;23.17;;;-1.00;99.90;;;;;;5072200;28;20086;-67
2021/01/17 06:23:56;;;;;;;46.15;24.08;;;-1.00;99.90;;;;;;5071610;28;20016;-67
2021/01/17 06:26:30;;;;;;;46.58;23.85;;;-1.00;99.90;;;;;;5071763;28;20067;-66
2021/01/17 06:28:56;;;;;;;50.88;25.67;;;-1.00;99.90;;;;;;5072292;28;20115;-67
2021/01/17 06:31:28;;;;;;;47.53;25.17;;;-1.00;99.90;;;;;;5054794;28;20021;-67
2021/01/17 06:34:05;;;;;;;44.70;23.05;;;-0.90;99.90;;;;;;5071913;28;20020;-66
2021/01/17 06:36:31;;;;;;;46.67;24.13;;;-1.00;99.90;;;;;;5085065;28;20031;-67
2021/01/17 06:38:57;;;;;;;49.83;24.77;;;-1.00;99.90;;;;;;5091466;28;20028;-65
2021/01/17 06:41:35;;;;;;;43.83;23.13;;;-0.90;99.90;;;;;;5089923;28;20025;-66
2021/01/17 06:44:12;;;;;;;48.90;24.92;;;-0.90;99.90;;;;;;5075710;28;20085;-66
2021/01/17 06:46:39;;;;;;;45.08;23.70;;;-0.90;99.90;;;;;;5071991;28;20371;-67
2021/01/17 06:49:29;;;;;;;48.47;24.35;;;-0.90;99.90;;;;;;5072053;28;20424;-67
2021/01/17 06:51:56;;;;;;;48.33;24.58;;;-0.80;99.90;;;;;;5071912;28;20081;-67
2021/01/17 06:54:37;;;;;;;43.65;24.02;;;-0.80;99.90;;;;;;5071194;28;20024;-66
2021/01/17 06:57:05;;;;;;;49.35;24.80;;;-0.80;99.90;;;;;;5071611;28;20032;-66
2021/01/17 06:59:47;;;;;;;50.70;26.00;;;-0.80;99.90;;;;;;5071858;28;20063;-66
2021/01/17 07:02:12;;;;;;;47.03;24.15;;;-0.90;99.90;;;;;;5071719;28;20020;-67
2021/01/17 07:04:54;;;;;;;52.03;24.60;;;-0.80;99.90;;;;;;5071043;28;20375;-68
2021/01/17 07:07:51;;;;;;;49.20;25.52;;;-0.90;99.90;;;;;;5071607;28;20021;-68
2021/01/17 07:10:24;;;;;;;48.67;24.58;;;-0.90;99.90;;;;;;5053503;28;20025;-67
2021/01/17 07:13:02;;;;;;;50.15;25.60;;;-0.80;99.90;;;;;;5070910;28;20423;-67
2021/01/17 07:15:30;;;;;;;46.55;24.85;;;-0.80;99.90;;;;;;5071088;28;20112;-67
2021/01/17 07:18:12;;;;;;;49.20;25.30;;;-0.80;99.90;;;;;;5071343;28;20074;-68
2021/01/17 07:20:39;;;;;;;49.65;24.90;;;-0.70;99.90;;;;;;5070518;28;20029;-67
2021/01/17 07:23:07;;;;;;;49.55;24.27;;;-0.70;99.90;;;;;;5070621;28;20020;-67
2021/01/17 07:25:34;;;;;;;52.67;25.65;;;-0.70;99.90;;;;;;5052969;28;20112;-67
2021/01/17 07:28:19;;;;;;;47.53;24.65;;;-0.70;99.90;;;;;;5071237;28;20029;-68
2021/01/17 07:30:49;;;;;;;47.40;23.70;;;-0.70;99.90;;;;;;5071372;28;20032;-68
2021/01/17 07:33:29;;;;;;;50.92;25.02;;;-0.70;99.90;;;;;;5070658;28;20048;-67
2021/01/17 07:35:57;;;;;;;47.00;24.90;;;-0.60;99.90;;;;;;5076930;28;20033;-67
2021/01/17 07:38:31;;;;;;;47.92;24.63;;;-0.60;99.90;;;;;;5075177;28;20021;-67
2021/01/17 07:41:10;;;;;;;51.92;25.65;;;-0.60;99.90;;;;;;5071308;28;20028;-66
2021/01/17 07:43:38;;;;;;;48.45;25.50;;;-0.60;99.90;;;;;;5070439;28;20027;-66
2021/01/17 07:46:05;;;;;;;49.88;25.58;;;-0.60;99.90;;;;;;5071592;28;20503;-66
2021/01/17 07:48:32;;;;;;;48.95;23.63;;;-0.50;99.90;;;;;;5075334;28;20094;-66
2021/01/17 07:51:00;;;;;;;48.47;24.15;;;-0.40;99.90;;;;;;5075205;28;20379;-66
2021/01/17 07:53:38;;;;;;;42.90;22.95;;;-0.40;99.90;;;;;;5074439;28;20039;-66
2021/01/17 07:56:10;;;;;;;46.35;24.60;;;-0.30;99.90;;;;;;5074222;28;20036;-66
2021/01/17 07:58:45;;;;;;;46.08;23.98;;;-0.20;99.90;;;;;;5075161;28;20033;-67
2021/01/17 08:01:35;;;;;;;48.22;25.50;;;-0.20;99.90;;;;;;5074894;28;20482;-68
2021/01/17 08:04:03;;;;;;;47.80;25.92;;;-0.20;99.90;;;;;;5071660;28;20033;-67
2021/01/17 08:06:35;;;;;;;49.30;26.75;;;-0.20;99.90;;;;;;5043419;28;20112;-67
2021/01/17 08:09:08;;;;;;;50.80;27.80;;;-0.10;99.90;;;;;;5054537;28;20032;-67
2021/01/17 08:11:56;;;;;;;49.15;26.67;;;-0.10;99.90;;;;;;5054160;28;20086;-69
2021/01/17 08:14:25;;;;;;;46.67;26.60;;;-0.10;99.90;;;;;;5053771;28;20394;-67
2021/01/17 08:17:06;;;;;;;47.35;24.92;;;-0.20;99.90;;;;;;5054124;28;20071;-69
2021/01/17 08:19:39;;;;;;;48.03;25.10;;;-0.20;99.90;;;;;;5054362;28;20152;-68
2021/01/17 08:22:16;;;;;;;51.97;26.85;;;-0.10;99.90;;;;;;5073297;28;20566;-68
2021/01/17 08:24:46;;;;;;;48.85;26.35;;;0.00;99.90;;;;;;5049564;28;20037;-73
2021/01/17 08:27:31;;;;;;;48.67;25.90;;;-0.10;99.90;;;;;;5041962;28;20037;-73
2021/01/17 08:30:03;;;;;;;52.20;25.65;;;-0.10;99.90;;;;;;5043167;28;20018;-75
2021/01/17 08:32:35;;;;;;;48.30;24.98;;;0.00;99.90;;;;;;5022828;28;20021;-74
2021/01/17 08:35:23;;;;;;;47.22;24.75;;;0.10;99.90;;;;;;5023354;28;20024;-74
2021/01/17 08:37:50;;;;;;;44.58;24.80;;;0.10;99.90;;;;;;5033241;28;20053;-74
2021/01/17 08:40:19;;;;;;;46.50;25.30;;;0.20;99.90;;;;;;5045091;28;20471;-69
2021/01/17 08:42:50;;;;;;;45.53;24.02;;;0.20;99.90;;;;;;5035591;28;20029;-70
2021/01/17 08:45:18;;;;;;;42.87;22.33;;;0.10;99.90;;;;;;5054059;28;20025;-70
2021/01/17 08:47:45;;;;;;;52.25;26.58;;;0.00;99.90;;;;;;5054363;28;20021;-72
2021/01/17 08:50:26;;;;;;;49.03;26.20;;;0.40;99.90;;;;;;5033650;28;20025;-73
2021/01/17 08:52:53;;;;;;;41.15;20.58;;;0.40;99.90;;;;;;5034917;28;20033;-73
2021/01/17 08:55:37;;;;;;;47.83;23.95;;;1.30;99.90;;;;;;5040448;28;20037;-70
2021/01/17 08:58:03;;;;;;;40.50;22.70;;;1.30;99.90;;;;;;5041579;28;20025;-69
2021/01/17 09:00:48;;;;;;;47.90;24.70;;;1.20;99.90;;;;;;5050498;28;20384;-67
2021/01/17 09:03:31;;;;;;;42.40;23.42;;;1.00;99.90;;;;;;5053045;28;20095;-69
2021/01/17 09:05:58;;;;;;;41.17;22.30;;;0.80;99.90;;;;;;5052938;28;20023;-68
2021/01/17 09:08:24;;;;;;;45.38;24.02;;;0.70;99.90;;;;;;5053188;28;20480;-67
2021/01/17 09:10:50;;;;;;;47.90;25.40;;;0.60;99.90;;;;;;5048198;28;20024;-67
2021/01/17 09:13:21;;;;;;;48.20;25.63;;;0.70;99.90;;;;;;5041835;28;20433;-68
2021/01/17 09:16:06;;;;;;;46.58;25.40;;;0.90;99.90;;;;;;5040972;28;20719;-68
2021/01/17 09:18:37;;;;;;;47.60;26.75;;;1.10;99.90;;;;;;5041809;28;20029;-66
2021/01/17 09:21:05;;;;;;;43.45;25.17;;;1.20;99.90;;;;;;5058244;28;20021;-66
2021/01/17 09:23:38;;;;;;;47.60;26.27;;;1.20;99.90;;;;;;5072874;28;20024;-67
2021/01/17 09:26:05;;;;;;;48.63;26.42;;;0.90;99.90;;;;;;5054873;28;20020;-67
2021/01/17 09:28:31;;;;;;;54.10;30.23;;;0.60;99.90;;;;;;5073383;28;20024;-73
2021/01/17 09:31:00;;;;;;;45.17;24.17;;;1.70;99.90;;;;;;5073823;28;20487;-68
2021/01/17 09:33:28;;;;;;;46.40;25.90;;;1.90;99.90;;;;;;5070255;28;20103;-68
2021/01/17 09:35:54;;;;;;;46.45;26.33;;;1.80;99.90;;;;;;5033220;28;20109;-67
2021/01/17 09:38:24;;;;;;;45.38;26.17;;;1.80;99.90;;;;;;5032293;28;20357;-67
2021/01/17 09:40:53;;;;;;;43.38;24.33;;;1.70;99.90;;;;;;5032435;28;20476;-68
2021/01/17 09:43:19;;;;;;;45.03;25.95;;;1.60;99.90;;;;;;5031260;28;20476;-68
2021/01/17 09:45:56;;;;;;;38.53;24.02;;;1.70;99.90;;;;;;5032964;28;20032;-70
2021/01/17 09:48:24;;;;;;;42.90;25.52;;;1.70;99.90;;;;;;5033005;28;20014;-71
2021/01/17 09:50:51;;;;;;;39.92;22.92;;;2.10;99.90;;;;;;5032270;28;20117;-64
2021/01/17 09:53:17;;;;;;;39.17;23.40;;;2.10;99.90;;;;;;5030995;28;20040;-65
2021/01/17 09:55:45;;;;;;;37.83;22.55;;;2.10;99.90;;;;;;5031263;28;20113;-66
2021/01/17 09:58:13;;;;;;;45.35;23.77;;;2.10;99.90;;;;;;5031259;28;20051;-65
2021/01/17 10:00:41;;;;;;;44.97;23.83;;;2.10;99.90;;;;;;5038408;28;20025;-68
2021/01/17 10:03:12;;;;;;;40.55;23.13;;;1.90;99.90;;;;;;5031728;28;20030;-68
2021/01/17 10:05:38;;;;;;;42.47;24.58;;;1.80;99.90;;;;;;5031931;28;20546;-68
2021/01/17 10:08:07;;;;;;;48.80;27.63;;;1.60;99.90;;;;;;5032368;28;20435;-67
2021/01/17 10:10:34;;;;;;;44.80;25.10;;;1.50;99.90;;;;;;5014201;28;20026;-68
2021/01/17 10:13:00;;;;;;;41.95;24.65;;;1.30;99.90;;;;;;5031571;28;20048;-70
2021/01/17 10:15:25;;;;;;;45.65;26.00;;;1.40;99.90;;;;;;5032250;28;20440;-68
2021/01/17 10:17:53;;;;;;;45.08;25.60;;;1.50;99.90;;;;;;5032450;28;20091;-66
2021/01/17 10:20:26;;;;;;;45.58;25.80;;;1.50;99.90;;;;;;5022855;28;20111;-68
2021/01/17 10:22:59;;;;;;;48.75;26.65;;;1.70;99.90;;;;;;5071723;28;20021;-69
2021/01/17 10:25:26;;;;;;;47.28;26.50;;;1.70;99.90;;;;;;5078434;22;20053;-70
2021/01/17 10:28:17;;;;;;;47.63;25.98;;;1.90;99.90;;;;;;5049935;28;20027;-72
2021/01/17 10:30:43;;;;;;;43.42;26.10;;;2.00;99.90;;;;;;5055596;28;20021;-71
2021/01/17 10:33:10;;;;;;;40.63;23.45;;;2.10;99.90;;;;;;5055153;28;20040;-72
2021/01/17 10:35:47;;;;;;;41.10;23.55;;;2.20;99.90;;;;;;5050223;28;20025;-69
2021/01/17 10:38:14;;;;;;;37.22;21.83;;;2.30;99.90;;;;;;5036161;28;20093;-73
2021/01/17 10:40:41;;;;;;;36.65;22.27;;;2.40;99.90;;;;;;5034548;28;20033;-71
2021/01/17 10:43:16;;;;;;;34.20;21.40;;;2.50;99.90;;;;;;5017498;28;20048;-71
2021/01/17 10:45:46;;;;;;;36.40;22.52;;;2.60;99.90;;;;;;5036393;28;20079;-70
2021/01/17 10:48:15;;;;;;;36.85;21.98;;;2.60;99.90;;;;;;5036007;28;20529;-70
2021/01/17 10:50:46;;;;;;;35.53;21.50;;;2.50;99.90;;;;;;5036324;28;20430;-72
2021/01/17 10:53:18;;;;;;;40.03;23.35;;;3.00;99.90;;;;;;5018723;28;20025;-70
2021/01/17 10:55:55;;;;;;;37.95;22.02;;;3.10;99.90;;;;;;5006292;28;20040;-71
2021/01/17 10:58:26;;;;;;;34.13;20.63;;;3.30;99.90;;;;;;5015909;28;20026;-71
2021/01/17 11:00:57;;;;;;;38.25;23.17;;;3.40;99.90;;;;;;4998093;28;20030;-70
2021/01/17 11:03:37;;;;;;;39.50;22.27;;;3.50;99.90;;;;;;5014906;28;20076;-72
2021/01/17 11:06:06;;;;;;;34.97;21.40;;;3.50;99.90;;;;;;5015169;28;20045;-72
2021/01/17 11:08:35;;;;;;;38.50;22.70;;;3.50;99.90;;;;;;4998331;28;20546;-72
2021/01/17 11:11:00;;;;;;;35.20;22.38;;;3.50;99.90;;;;;;5002132;28;20064;-72
2021/01/17 11:13:26;;;;;;;35.35;21.88;;;3.50;99.90;;;;;;5021211;28;20026;-70
2021/01/17 11:15:52;;;;;;;28.85;18.95;;;3.50;99.90;;;;;;5003006;28;20040;-72
2021/01/17 11:18:21;;;;;;;31.45;19.83;;;3.40;99.90;;;;;;5015296;28;20037;-72
2021/01/17 11:20:48;;;;;;;28.45;18.85;;;3.50;99.90;;;;;;5032335;28;20096;-71
2021/01/17 11:23:14;;;;;;;35.17;21.17;;;3.50;99.90;;;;;;5038972;28;20097;-70
2021/01/17 11:25:40;;;;;;;33.38;19.67;;;3.50;99.90;;;;;;5038246;28;20083;-73
2021/01/17 11:28:07;;;;;;;30.73;18.42;;;3.50;99.90;;;;;;5036241;28;20426;-72
2021/01/17 11:30:34;;;;;;;30.38;19.10;;;3.50;99.90;;;;;;5036061;28;20506;-71
2021/01/17 11:33:11;;;;;;;32.75;20.30;;;3.60;99.90;;;;;;5035512;28;20022;-72
2021/01/17 11:35:39;;;;;;;30.85;18.27;;;3.50;99.90;;;;;;5035147;28;20034;-73
2021/01/17 11:38:05;;;;;;;30.50;18.40;;;3.40;99.90;;;;;;5034939;28;20032;-72
2021/01/17 11:40:31;;;;;;;28.83;17.02;;;3.30;99.90;;;;;;5033375;28;20436;-71
2021/01/17 11:43:13;;;;;;;30.33;16.58;;;3.30;99.90;;;;;;5032232;28;20040;-71
2021/01/17 11:45:44;;;;;;;29.27;17.35;;;3.30;99.90;;;;;;5014719;28;20017;-70
2021/01/17 11:48:11;;;;;;;27.30;16.90;;;3.30;99.90;;;;;;5033313;28;20021;-71
2021/01/17 11:50:42;;;;;;;27.42;17.50;;;3.30;99.90;;;;;;5033810;28;20033;-72
2021/01/17 11:53:10;;;;;;;30.30;17.30;;;3.40;99.90;;;;;;5033696;28;20034;-71
2021/01/17 11:55:36;;;;;;;32.80;18.20;;;3.50;99.90;;;;;;5035298;28;20099;-71
2021/01/17 11:58:10;;;;;;;29.13;18.92;;;3.30;99.90;;;;;;5034753;28;20547;-72
2021/01/17 12:00:57;;;;;;;32.13;19.52;;;3.40;99.90;;;;;;5001283;28;20036;-71
2021/01/17 12:03:27;;;;;;;31.65;19.02;;;3.40;99.90;;;;;;5012104;28;20065;-72
2021/01/17 12:06:16;;;;;;;52.67;26.60;;;3.40;99.90;;;;;;5012408;28;20069;-71
2021/01/17 12:08:55;;;;;;;73.65;33.58;;;3.50;99.90;;;;;;5013303;28;20064;-72
2021/01/17 12:11:40;;;;;;;75.75;33.83;;;3.60;99.90;;;;;;4994880;28;20022;-70
2021/01/17 12:14:28;;;;;;;47.95;25.63;;;3.70;99.90;;;;;;5011573;28;20114;-71
2021/01/17 12:16:55;;;;;;;67.93;31.98;;;3.80;99.90;;;;;;5012117;28;20037;-70
2021/01/17 12:19:22;;;;;;;58.58;28.80;;;3.90;99.90;;;;;;5001953;28;20021;-69
2021/01/17 12:21:52;;;;;;;43.85;24.08;;;3.90;99.90;;;;;;5031378;28;20032;-69
2021/01/17 12:24:18;;;;;;;42.38;22.48;;;4.00;99.90;;;;;;5031552;28;20120;-69
2021/01/17 12:26:46;;;;;;;36.03;20.73;;;4.10;99.90;;;;;;5033076;28;20056;-71
2021/01/17 12:29:14;;;;;;;33.88;19.63;;;4.10;99.90;;;;;;5019870;28;20022;-72
2021/01/17 12:31:40;;;;;;;32.13;18.65;;;4.00;99.90;;;;;;5012791;28;20571;-70
2021/01/17 12:34:07;;;;;;;29.80;18.95;;;4.00;99.90;;;;;;4996339;28;20038;-71
2021/01/17 12:36:34;;;;;;;30.67;18.98;;;4.00;99.90;;;;;;5014218;28;20052;-71
2021/01/17 12:39:02;;;;;;;29.80;19.17;;;4.00;99.90;;;;;;5014677;28;20021;-74
2021/01/17 12:41:31;;;;;;;28.10;17.92;;;4.00;99.90;;;;;;5029669;28;20032;-70
2021/01/17 12:43:57;;;;;;;29.67;17.70;;;4.00;99.90;;;;;;5014250;28;20029;-70
2021/01/17 12:46:24;;;;;;;28.60;16.63;;;3.90;99.90;;;;;;5014392;28;20083;-71